Terminal Aerodrome Forecast
Issued by NWS Newport/Morehead City, NC

Home | Current Version | Previous Version | Text Only | Print | Product List | Glossary Off
Versions: 1 2 3 4 5 6 7 8 9 10 11 12 13 14 15 16 17 18 19 20 21 22 23

000
FTUS42 KMHX 312352
TAFEWN
TAF
KEWN 312352Z 0100/0124 16003KT P6SM VCSH SCT010 BKN025
     FM010300 VRB03KT 5SM BR BKN010
     FM010600 00000KT 3SM BR OVC007
     FM010800 00000KT 2SM BR OVC004
     FM011330 VRB03KT P6SM BKN025=

USA.gov is the U.S. government's official web portal to all federal, state and local government web resources and services.